Accueil
METAR-TAF:

METAR-TAF

Aéroports :

Brown Field Municipal Airport

San Diego, Californie, États-Unis

latitude: 32-34-31N, longitude: 116-59-35W, altitude: 164 m

Observation

Le bulletin a été fait il y a 28 minutes, à 23:53 UTC
Vent 5 kt de ouest
Température 17°C
Humidité 72%
Pression 1021 hPa
Visibilité: 14.5 km
Ciel clair

METAR: KSDM 272353Z 27005KT 9SM CLR 17/12 A3015 RMK AO2 SLP207 T01720117 10183 20150 56004

Heure: 16:21 (00:21 UTC)


TAF: absent

Observations et prévisions météorologiques de plus de 4000 aéroports (messages METAR et TAF).

Les stations disponibles sont représentées par des disques jaunes et rouges sur la carte.

Passer la souris dessus pour voir le nom de la station.

Cliquer dessus pour voir les observations et prévisions météorologiques.

Pour changer de carte: cliquez sur les boutons verts avec une croix noire pour zoomer, sur le bouton vert avec un tiret pour effectuer un zoom arrière, ou sur les flèches vertes pour les cartes adjacentes.


METAR-TAF: